Aeroporto :







RITROVATECI SU...

 
LOGIN :

Iscrizione | Disclaimer

   EN    FR    IT 

 









Sommario :    VFR   VFR Marginale   IFR   IFR Intensivo   IFR Molto Intensivo
Visibilità : 
Base nubi : 
>= 8 km
>= 3000ft
5 / 8 km
1000 / 3000 ft
1500m / 5 km
500 / 1000 ft
800 / 1500m
200 / 500 ft
< 800m
< 200 ft
Simboli :   Temporali  Nebbia  Neve Forte  Precipitazioni Forti  Vento > 20 kt






- Altitudine del aeroporto : 90 ft
- Codice IATA : YHU


CYHU - Montréal Saint-Hubert

ULTIMO METAR :
  • 120500Z AUTO 03014G21KT 3/4SM R24R/4500FT/D -SN VV013 M07/M09 A3002 RMK PRESFR SLP169

METARs OBSOLETI :
  • 120400Z AUTO 03013KT 3/4SM R24R/P6000FT/U -SN VV012 M07/M09 A3008 RMK SLP191
  • 120300Z AUTO 03012KT 3/4SM R24R/P6000FT/N -SN VV011 M07/M09 A3012 RMK SLP203

TAF TAF CYHU
Valido dal 12 a 00 ore il 13 a 00 ore UTC


112338Z 1200/1224 05008KT 1SM -SN BKN008 OVC020
TEMPO 1200/1201 3SM -SN OVC025
FM120100 04012G22KT 3/4SM -SN VV007
TEMPO 1201/1210 2SM -SN OVC012
FM121000 01010G20KT 1SM -SN VV010
FM121500 32015KT P6SM -SN BKN030
BECMG 1216/1218 30015KT
FM122000 27015G25KT P6SM BKN030 RMK FCST BASED ON AUTO OBS. NXT FCST BY 120600Z



MetMap, La meteo Aeronautica in un colpo d'occhio ! - Copyright ORBIFLY Dicembre 2007 - Disclaimer

ORBIFLY MET'MAP TEAM :

Programmazione e sviluppo : Alexandra Zaïnal
Concezione e sviluppo : Baudouin d'Aumeries
Co-Programmazione e sviluppo : Marc-Olivier Méhu
Supporto tecnico e logistico : Manuel Goepfert
Aiuto per la traduzione : Arnaldo La Scala

Contatto : metmap@orbifly.com




FONTI E CREDITI :

   NOAA